createdAt,value
2022-12-25T00:00:44.429Z,97318.47
2022-12-25T00:02:47.113Z,97327.25
2022-12-25T00:04:49.824Z,97323.78
2022-12-25T00:06:52.454Z,97314.38
2022-12-25T00:08:56.428Z,97319.63
2022-12-25T00:11:00.593Z,97324.00
2022-12-25T00:13:03.164Z,97325.75
2022-12-25T00:15:06.346Z,97320.63
2022-12-25T00:17:08.919Z,97342.44
2022-12-25T00:19:11.550Z,97344.25
2022-12-25T00:21:14.988Z,97345.97
2022-12-25T00:23:17.597Z,97334.69
2022-12-25T00:25:21.482Z,97345.84
2022-12-25T00:27:24.013Z,97336.06
2022-12-25T00:29:26.605Z,97332.72
2022-12-25T00:31:29.383Z,97332.78
2022-12-25T00:33:34.315Z,97333.53
2022-12-25T00:35:36.938Z,97333.56
2022-12-25T00:37:39.503Z,97332.56
2022-12-25T00:39:42.074Z,97335.13
2022-12-25T00:42:03.621Z,97329.06
2022-12-25T00:44:06.448Z,97324.66
2022-12-25T00:46:11.085Z,97321.31
2022-12-25T00:48:13.770Z,97321.25
2022-12-25T00:50:16.316Z,97321.13
2022-12-25T00:52:18.957Z,97325.44
2022-12-25T00:54:22.227Z,97329.69
2022-12-25T00:56:25.488Z,97329.59
2022-12-25T00:58:30.983Z,97328.66
2022-12-25T01:00:33.593Z,97328.69
2022-12-25T01:02:36.403Z,97333.75
2022-12-25T01:04:39.204Z,97328.53
2022-12-25T01:06:42.213Z,97326.72
2022-12-25T01:09:05.392Z,97320.53
2022-12-25T01:11:08.828Z,97318.84
2022-12-25T01:13:11.377Z,97318.00
2022-12-25T01:15:15.473Z,97318.78
2022-12-25T01:17:18.085Z,97310.88
2022-12-25T01:19:20.699Z,97316.69
2022-12-25T01:21:23.889Z,97317.50
2022-12-25T01:23:26.465Z,97320.47
2022-12-25T01:25:29.071Z,97323.94
2022-12-25T01:27:32.955Z,97335.00
2022-12-25T01:29:35.579Z,97321.28
2022-12-25T01:31:39.545Z,97325.72
2022-12-25T01:33:43.346Z,97325.75
2022-12-25T01:35:45.986Z,97325.75
2022-12-25T01:37:48.578Z,97319.66
2022-12-25T01:39:51.218Z,97322.25
2022-12-25T01:41:53.780Z,97320.53
2022-12-25T01:44:03.621Z,97327.25
2022-12-25T01:46:06.233Z,97335.19
2022-12-25T01:48:15.743Z,97340.38
2022-12-25T01:50:18.572Z,97340.50
2022-12-25T01:52:24.787Z,97338.84
2022-12-25T01:54:31.085Z,97334.50
2022-12-25T01:56:35.538Z,97337.09
2022-12-25T01:58:38.182Z,97337.16
2022-12-25T02:00:40.831Z,97333.69
2022-12-25T02:02:45.438Z,97337.16
2022-12-25T02:04:54.783Z,97331.94
2022-12-25T02:06:57.435Z,97324.06
2022-12-25T02:09:00.219Z,97332.69
2022-12-25T02:11:02.797Z,97329.28
2022-12-25T02:13:05.986Z,97324.94
2022-12-25T02:15:13.107Z,97322.38
2022-12-25T02:17:24.896Z,97319.78
2022-12-25T02:19:37.930Z,97321.69
2022-12-25T02:21:56.151Z,97319.03
2022-12-25T02:24:22.990Z,97323.31
2022-12-25T02:26:48.503Z,97325.06
2022-12-25T02:29:00.037Z,97325.19
2022-12-25T02:31:10.252Z,97322.69
2022-12-25T02:33:31.354Z,97325.34
2022-12-25T02:35:33.995Z,97326.34
2022-12-25T02:37:41.743Z,97314.28
2022-12-25T02:40:00.691Z,97318.69
2022-12-25T02:42:07.916Z,97320.38
2022-12-25T02:44:35.018Z,97317.03
2022-12-25T02:46:55.604Z,97320.63
2022-12-25T02:49:19.542Z,97314.59
2022-12-25T02:51:43.382Z,97316.44
2022-12-25T02:54:05.940Z,97318.19
2022-12-25T02:56:26.014Z,97307.91
2022-12-25T02:58:47.078Z,97321.91
2022-12-25T03:01:14.468Z,97323.75
2022-12-25T03:03:36.218Z,97317.91
2022-12-25T03:05:59.067Z,97314.56
2022-12-25T03:08:05.772Z,97322.47
2022-12-25T03:10:28.364Z,97312.06
2022-12-25T03:12:39.535Z,97311.16
2022-12-25T03:14:59.645Z,97317.31
2022-12-25T03:17:03.612Z,97316.50
2022-12-25T03:19:26.973Z,97309.50
2022-12-25T03:21:46.979Z,97314.72
2022-12-25T03:24:17.126Z,97314.91
2022-12-25T03:26:37.215Z,97317.66
2022-12-25T03:28:39.777Z,97313.34
2022-12-25T03:31:04.147Z,97308.22
2022-12-25T03:33:43.737Z,97309.09
2022-12-25T03:35:46.915Z,97301.41
2022-12-25T03:38:22.342Z,97294.28
2022-12-25T03:40:50.383Z,97285.16
2022-12-25T03:43:15.733Z,97281.16
2022-12-25T03:45:40.977Z,97273.63
2022-12-25T03:48:04.696Z,97272.03
2022-12-25T03:50:31.296Z,97281.78
2022-12-25T03:52:53.293Z,97296.63
2022-12-25T03:55:15.199Z,97301.03
2022-12-25T03:57:35.355Z,97295.00
2022-12-25T03:59:55.792Z,97284.63
2022-12-25T04:02:15.938Z,97289.88
2022-12-25T04:04:32.537Z,97280.28
2022-12-25T04:06:54.140Z,97279.41
2022-12-25T04:09:14.412Z,97274.22
2022-12-25T04:11:34.800Z,97275.06
2022-12-25T04:13:54.874Z,97270.69
2022-12-25T04:16:15.344Z,97271.63
2022-12-25T04:18:35.543Z,97270.75
2022-12-25T04:21:10.438Z,97269.94
2022-12-25T04:23:32.180Z,97269.13
2022-12-25T04:25:52.652Z,97265.81
2022-12-25T04:28:13.259Z,97268.63
2022-12-25T04:30:33.570Z,97266.06
2022-12-25T04:32:53.680Z,97260.13
2022-12-25T04:35:14.028Z,97263.53
2022-12-25T04:37:16.648Z,97244.47
2022-12-25T04:39:20.760Z,97245.34
2022-12-25T04:41:23.309Z,97263.44
2022-12-25T04:43:26.041Z,97270.38
2022-12-25T04:45:28.619Z,97266.78
2022-12-25T04:47:31.217Z,97260.69
2022-12-25T04:49:33.854Z,97251.84
2022-12-25T04:51:37.812Z,97256.91
2022-12-25T04:53:40.443Z,97256.81
2022-12-25T04:55:44.405Z,97257.63
2022-12-25T04:57:46.976Z,97257.75
2022-12-25T04:59:49.566Z,97253.22
2022-12-25T05:01:52.179Z,97259.59
2022-12-25T05:03:54.908Z,97257.84
2022-12-25T05:05:57.668Z,97261.22
2022-12-25T05:08:00.266Z,97250.28
2022-12-25T05:10:02.877Z,97251.28
2022-12-25T05:12:06.963Z,97249.53
2022-12-25T05:14:09.509Z,97245.22
2022-12-25T05:16:17.756Z,97255.56
2022-12-25T05:18:20.495Z,97251.28
2022-12-25T05:20:23.053Z,97251.28
2022-12-25T05:22:25.662Z,97245.06
2022-12-25T05:24:28.784Z,97238.09
2022-12-25T05:26:32.692Z,97237.22
2022-12-25T05:28:36.802Z,97242.34
2022-12-25T05:30:39.391Z,97237.97
2022-12-25T05:32:41.957Z,97233.59
2022-12-25T05:34:44.488Z,97237.97
2022-12-25T05:36:47.088Z,97237.97
2022-12-25T05:38:49.660Z,97234.56
2022-12-25T05:40:52.866Z,97236.94
2022-12-25T05:42:55.441Z,97232.72
2022-12-25T05:44:59.339Z,97242.19
2022-12-25T05:47:01.979Z,97238.69
2022-12-25T05:49:05.709Z,97234.22
2022-12-25T05:51:10.086Z,97221.31
2022-12-25T05:53:14.892Z,97220.31
2022-12-25T05:55:20.017Z,97216.81
2022-12-25T05:57:25.638Z,97218.66
2022-12-25T05:59:30.034Z,97216.09
2022-12-25T06:01:33.989Z,97217.88
2022-12-25T06:03:36.762Z,97211.09
2022-12-25T06:05:39.795Z,97212.91
2022-12-25T06:07:42.484Z,97213.84
2022-12-25T06:09:45.072Z,97207.81
2022-12-25T06:11:47.728Z,97206.88
2022-12-25T06:13:51.174Z,97207.81
2022-12-25T06:15:53.815Z,97203.44
2022-12-25T06:18:00.395Z,97196.38
2022-12-25T06:20:03.709Z,97185.09
2022-12-25T06:22:06.286Z,97190.25
2022-12-25T06:24:09.182Z,97202.81
2022-12-25T06:26:14.646Z,97202.28
2022-12-25T06:28:17.462Z,97203.97
2022-12-25T06:30:20.175Z,97193.63
2022-12-25T06:32:22.777Z,97196.06
2022-12-25T06:34:27.133Z,97189.97
2022-12-25T06:36:30.282Z,97199.63
2022-12-25T06:38:32.882Z,97197.91
2022-12-25T06:40:35.695Z,97196.22
2022-12-25T06:42:38.326Z,97201.53
2022-12-25T06:44:40.881Z,97198.97
2022-12-25T06:46:43.461Z,97202.41
2022-12-25T06:48:49.723Z,97205.91
2022-12-25T06:50:53.910Z,97204.19
2022-12-25T06:52:57.266Z,97211.09
2022-12-25T06:54:59.883Z,97206.03
2022-12-25T06:57:02.467Z,97212.19
2022-12-25T06:59:08.051Z,97206.25
2022-12-25T07:01:15.463Z,97206.00
2022-12-25T07:03:24.299Z,97203.19
2022-12-25T07:05:26.919Z,97202.28
2022-12-25T07:07:30.807Z,97211.88
2022-12-25T07:09:33.670Z,97205.25
2022-12-25T07:11:36.633Z,97202.84
2022-12-25T07:13:39.267Z,97209.81
2022-12-25T07:15:41.786Z,97213.28
2022-12-25T07:17:44.551Z,97213.28
2022-12-25T07:19:47.518Z,97203.63
2022-12-25T07:21:50.130Z,97208.78
2022-12-25T07:23:54.147Z,97206.19
2022-12-25T07:25:56.822Z,97207.94
2022-12-25T07:27:59.526Z,97221.78
2022-12-25T07:30:02.113Z,97227.84
2022-12-25T07:32:05.162Z,97226.81
2022-12-25T07:34:07.824Z,97217.16
2022-12-25T07:36:13.035Z,97216.53
2022-12-25T07:38:15.857Z,97213.09
2022-12-25T07:40:19.883Z,97214.91
2022-12-25T07:42:25.372Z,97214.19
2022-12-25T07:44:28.168Z,97219.28
2022-12-25T07:46:30.753Z,97214.91
2022-12-25T07:48:33.440Z,97216.59
2022-12-25T07:50:36.093Z,97208.78
2022-12-25T07:52:43.385Z,97205.31
2022-12-25T07:54:46.139Z,97194.84
2022-12-25T07:56:53.216Z,97193.56
2022-12-25T07:58:55.767Z,97187.84
2022-12-25T08:01:04.658Z,97189.72
2022-12-25T08:03:08.037Z,97192.53
2022-12-25T08:05:11.025Z,97182.25
2022-12-25T08:07:13.609Z,97181.47
2022-12-25T08:09:16.230Z,97178.81
2022-12-25T08:11:18.827Z,97178.84
2022-12-25T08:13:22.816Z,97178.84
2022-12-25T08:15:25.366Z,97182.38
2022-12-25T08:17:27.968Z,97189.31
2022-12-25T08:19:30.532Z,97185.03
2022-12-25T08:21:33.130Z,97191.03
2022-12-25T08:23:36.319Z,97187.47
2022-12-25T08:25:38.890Z,97185.66
2022-12-25T08:27:41.481Z,97180.41
2022-12-25T08:29:45.984Z,97181.22
2022-12-25T08:31:48.574Z,97179.38
2022-12-25T08:33:53.175Z,97178.44
2022-12-25T08:35:56.938Z,97179.50
2022-12-25T08:37:59.481Z,97180.28
2022-12-25T08:40:02.086Z,97182.78
2022-12-25T08:42:04.890Z,97187.13
2022-12-25T08:44:07.810Z,97187.88
2022-12-25T08:46:12.226Z,97189.50
2022-12-25T08:48:15.029Z,97191.19
2022-12-25T08:50:17.577Z,97197.16
2022-12-25T08:52:20.183Z,97193.63
2022-12-25T08:54:22.861Z,97189.16
2022-12-25T08:56:25.430Z,97177.78
2022-12-25T08:58:28.833Z,97173.28
2022-12-25T09:00:31.465Z,97175.81
2022-12-25T09:02:36.690Z,97173.91
2022-12-25T09:04:39.459Z,97160.00
2022-12-25T09:06:42.056Z,97154.84
2022-12-25T09:08:49.149Z,97147.75
2022-12-25T09:10:52.360Z,97132.94
2022-12-25T09:12:54.916Z,97131.03
2022-12-25T09:14:57.495Z,97131.78
2022-12-25T09:17:00.092Z,97137.72
2022-12-25T09:19:06.318Z,97129.81
2022-12-25T09:21:11.840Z,97136.63
2022-12-25T09:23:14.602Z,97136.63
2022-12-25T09:25:17.378Z,97135.63
2022-12-25T09:27:20.067Z,97145.06
2022-12-25T09:29:22.672Z,97143.25
2022-12-25T09:31:25.432Z,97137.13
2022-12-25T09:33:28.502Z,97136.13
2022-12-25T09:35:32.438Z,97142.94
2022-12-25T09:37:35.109Z,97143.75
2022-12-25T09:39:43.903Z,97146.16
2022-12-25T09:41:56.606Z,97140.91
2022-12-25T09:44:03.081Z,97139.97
2022-12-25T09:46:10.400Z,97144.13
2022-12-25T09:48:16.704Z,97146.66
2022-12-25T09:50:24.725Z,97145.66
2022-12-25T09:52:37.495Z,97151.56
2022-12-25T09:54:47.118Z,97153.97
2022-12-25T09:56:49.754Z,97155.88
2022-12-25T09:58:52.758Z,97155.44
2022-12-25T10:01:05.027Z,97161.72
2022-12-25T10:03:19.072Z,97166.16
2022-12-25T10:05:34.607Z,97163.00
2022-12-25T10:07:46.683Z,97163.41
2022-12-25T10:10:03.688Z,97164.91
2022-12-25T10:12:23.995Z,97163.22
2022-12-25T10:14:35.987Z,97160.63
2022-12-25T10:16:48.133Z,97159.94
2022-12-25T10:19:13.848Z,97152.00
2022-12-25T10:21:19.340Z,97148.59
2022-12-25T10:23:27.213Z,97146.84
2022-12-25T10:25:30.113Z,97139.91
2022-12-25T10:27:35.028Z,97144.19
2022-12-25T10:29:38.568Z,97140.31
2022-12-25T10:31:44.165Z,97139.75
2022-12-25T10:33:47.074Z,97134.34
2022-12-25T10:35:50.206Z,97128.66
2022-12-25T10:37:58.496Z,97130.47
2022-12-25T10:40:02.660Z,97125.19
2022-12-25T10:42:22.439Z,97116.53
2022-12-25T10:44:25.376Z,97113.84
2022-12-25T10:46:30.302Z,97113.84
2022-12-25T10:48:34.190Z,97115.16
2022-12-25T10:50:43.988Z,97115.19
2022-12-25T10:52:57.659Z,97120.41
2022-12-25T10:55:10.953Z,97114.03
2022-12-25T10:57:16.454Z,97117.91
2022-12-25T10:59:19.079Z,97097.94
2022-12-25T11:01:21.967Z,97103.22
2022-12-25T11:03:27.160Z,97108.84
2022-12-25T11:05:35.030Z,97110.59
2022-12-25T11:07:50.767Z,97101.94
2022-12-25T11:09:59.290Z,97104.97
2022-12-25T11:12:07.735Z,97095.44
2022-12-25T11:14:18.474Z,97089.75
2022-12-25T11:16:29.886Z,97093.53
2022-12-25T11:18:35.840Z,97088.38
2022-12-25T11:20:41.292Z,97084.16
2022-12-25T11:22:50.343Z,97083.06
2022-12-25T11:24:52.965Z,97085.66
2022-12-25T11:26:57.874Z,97071.56
2022-12-25T11:29:01.871Z,97068.88
2022-12-25T11:31:09.355Z,97068.06
2022-12-25T11:33:14.990Z,97069.69
2022-12-25T11:35:19.546Z,97059.09
2022-12-25T11:37:26.551Z,97079.94
2022-12-25T11:39:31.881Z,97065.03
2022-12-25T11:41:37.109Z,97073.34
2022-12-25T11:43:47.701Z,97063.63
2022-12-25T11:45:56.158Z,97068.38
2022-12-25T11:48:02.049Z,97067.38
2022-12-25T11:50:08.970Z,97064.78
2022-12-25T11:52:14.592Z,97056.41
2022-12-25T11:54:23.274Z,97050.53
2022-12-25T11:56:28.123Z,97048.00
2022-12-25T11:58:34.451Z,97038.75
2022-12-25T12:00:37.713Z,97032.00
2022-12-25T12:02:46.956Z,97019.69
2022-12-25T12:04:56.323Z,97024.94
2022-12-25T12:07:05.445Z,97009.34
2022-12-25T12:09:27.392Z,97003.06
2022-12-25T12:11:33.677Z,96986.63
2022-12-25T12:13:44.845Z,96995.16
2022-12-25T12:15:49.619Z,96984.56
2022-12-25T12:17:53.576Z,96990.31
2022-12-25T12:19:56.180Z,96990.16
2022-12-25T12:22:02.139Z,96985.88
2022-12-25T12:24:07.935Z,96985.00
2022-12-25T12:26:19.951Z,96980.66
2022-12-25T12:28:25.518Z,96968.22
2022-12-25T12:30:31.319Z,96971.72
2022-12-25T12:32:39.037Z,96968.06
2022-12-25T12:34:48.026Z,96968.69
2022-12-25T12:36:51.937Z,96972.00
2022-12-25T12:38:56.475Z,96970.81
2022-12-25T12:41:01.658Z,96979.41
2022-12-25T12:43:05.949Z,96985.41
2022-12-25T12:45:11.681Z,96986.03
2022-12-25T12:47:30.605Z,96981.63
2022-12-25T12:49:33.704Z,96985.44
2022-12-25T12:51:38.863Z,96976.19
2022-12-25T12:53:42.560Z,96979.88
2022-12-25T12:55:45.265Z,96969.81
2022-12-25T12:58:01.818Z,96959.38
2022-12-25T13:00:10.364Z,96966.41
2022-12-25T13:02:48.541Z,96961.78
2022-12-25T13:05:02.921Z,96960.63
2022-12-25T13:07:18.537Z,96957.97
2022-12-25T13:09:34.001Z,96961.19
2022-12-25T13:11:42.501Z,96968.47
2022-12-25T13:13:46.712Z,96968.09
2022-12-25T13:15:51.665Z,96965.94
2022-12-25T13:17:57.141Z,96957.31
2022-12-25T13:20:02.259Z,96949.06
2022-12-25T13:22:07.987Z,96952.72
2022-12-25T13:24:22.277Z,96949.75
2022-12-25T13:26:25.011Z,96966.19
2022-12-25T13:28:29.460Z,96960.38
2022-12-25T13:30:31.994Z,96960.53
2022-12-25T13:32:34.807Z,96956.34
2022-12-25T13:34:39.445Z,96955.78
2022-12-25T13:36:42.060Z,96955.09
2022-12-25T13:38:47.737Z,96966.50
2022-12-25T13:41:25.938Z,96962.06
2022-12-25T13:43:28.403Z,96964.88
2022-12-25T13:45:34.103Z,96965.19
2022-12-25T13:47:38.211Z,96959.59
2022-12-25T13:49:40.832Z,96958.94
2022-12-25T13:51:43.718Z,96966.56
2022-12-25T13:53:47.645Z,96956.06
2022-12-25T13:55:53.843Z,96956.25
2022-12-25T13:57:59.116Z,96961.72
2022-12-25T14:00:02.398Z,96964.69
2022-12-25T14:02:05.768Z,96967.88
2022-12-25T14:04:15.826Z,96958.84
2022-12-25T14:06:21.492Z,96951.56
2022-12-25T14:08:27.215Z,96950.63
2022-12-25T14:10:36.518Z,96943.69
2022-12-25T14:12:39.157Z,96946.41
2022-12-25T14:14:43.991Z,96950.88
2022-12-25T14:16:49.486Z,96958.38
2022-12-25T14:18:54.072Z,96949.75
2022-12-25T14:21:00.701Z,96946.56
2022-12-25T14:23:03.414Z,96940.91
2022-12-25T14:25:15.987Z,96945.91
2022-12-25T14:27:23.227Z,96949.53
2022-12-25T14:29:28.611Z,96949.09
2022-12-25T14:31:32.371Z,96940.03
2022-12-25T14:33:39.515Z,96939.69
2022-12-25T14:35:42.806Z,96939.09
2022-12-25T14:37:45.597Z,96942.81
2022-12-25T14:39:56.744Z,96952.38
2022-12-25T14:41:59.622Z,96952.69
2022-12-25T14:44:06.707Z,96952.44
2022-12-25T14:46:09.354Z,96949.91
2022-12-25T14:48:24.491Z,96959.38
2022-12-25T14:50:31.460Z,96953.63
2022-12-25T14:52:45.383Z,96962.22
2022-12-25T14:54:50.857Z,96959.00
2022-12-25T14:56:56.128Z,96966.50
2022-12-25T14:59:00.762Z,96963.22
2022-12-25T15:01:06.605Z,96978.31
2022-12-25T15:03:22.041Z,96973.38
2022-12-25T15:05:28.128Z,96984.09
2022-12-25T15:07:32.241Z,96983.25
2022-12-25T15:09:35.981Z,96972.69
2022-12-25T15:11:38.697Z,96973.56
2022-12-25T15:13:41.251Z,96977.19
2022-12-25T15:15:51.071Z,96980.72
2022-12-25T15:17:55.578Z,96983.31
2022-12-25T15:20:00.772Z,96992.34
2022-12-25T15:22:04.144Z,96990.81
2022-12-25T15:24:07.327Z,96995.28
2022-12-25T15:26:13.574Z,96990.28
2022-12-25T15:28:16.149Z,96984.38
2022-12-25T15:30:18.799Z,96981.97
2022-12-25T15:32:24.106Z,96983.88
2022-12-25T15:34:29.720Z,96983.19
2022-12-25T15:36:33.839Z,96978.28
2022-12-25T15:38:38.890Z,96984.22
2022-12-25T15:40:42.407Z,96981.09
2022-12-25T15:42:45.715Z,96972.72
2022-12-25T15:44:48.516Z,96982.69
2022-12-25T15:46:51.434Z,96987.28
2022-12-25T15:48:54.069Z,96981.44
2022-12-25T15:50:58.025Z,96978.59
2022-12-25T15:53:00.610Z,96974.50
2022-12-25T15:55:03.256Z,96979.97
2022-12-25T15:57:07.927Z,96980.94
2022-12-25T15:59:12.344Z,96974.88
2022-12-25T16:01:16.281Z,96980.13
2022-12-25T16:03:19.065Z,96984.56
2022-12-25T16:05:22.955Z,96986.25
2022-12-25T16:07:27.678Z,96992.72
2022-12-25T16:09:30.249Z,96988.41
2022-12-25T16:11:32.957Z,96987.22
2022-12-25T16:13:36.468Z,96987.78
2022-12-25T16:15:39.105Z,96985.00
2022-12-25T16:17:42.053Z,96990.31
2022-12-25T16:19:45.402Z,96993.00
2022-12-25T16:21:48.296Z,96998.25
2022-12-25T16:23:52.254Z,96995.53
2022-12-25T16:25:54.794Z,96992.16
2022-12-25T16:27:57.465Z,96981.75
2022-12-25T16:30:00.033Z,96983.59
2022-12-25T16:32:02.805Z,96993.28
2022-12-25T16:34:07.248Z,96988.19
2022-12-25T16:36:10.036Z,96989.97
2022-12-25T16:38:13.104Z,96992.41
2022-12-25T16:40:18.667Z,96990.34
2022-12-25T16:42:21.283Z,96995.97
2022-12-25T16:44:23.956Z,96986.25
2022-12-25T16:46:26.860Z,96993.44
2022-12-25T16:48:30.153Z,97007.25
2022-12-25T16:50:32.740Z,97002.00
2022-12-25T16:52:35.994Z,97006.69
2022-12-25T16:54:38.591Z,97016.56
2022-12-25T16:56:42.528Z,97023.72
2022-12-25T16:58:49.343Z,97024.03
2022-12-25T17:00:51.929Z,97037.38
2022-12-25T17:02:55.908Z,97036.66
2022-12-25T17:05:00.422Z,97044.72
2022-12-25T17:07:03.018Z,97042.19
2022-12-25T17:09:05.781Z,97044.91
2022-12-25T17:11:08.897Z,97043.31
2022-12-25T17:13:12.808Z,97045.22
2022-12-25T17:15:15.558Z,97037.53
2022-12-25T17:17:18.142Z,97036.81
2022-12-25T17:19:22.464Z,97026.72
2022-12-25T17:21:26.352Z,97019.22
2022-12-25T17:23:29.007Z,97015.72
2022-12-25T17:25:31.640Z,97014.06
2022-12-25T17:27:34.246Z,97017.88
2022-12-25T17:29:39.701Z,97018.66
2022-12-25T17:31:42.711Z,97026.41
2022-12-25T17:33:45.664Z,97025.84
2022-12-25T17:35:48.203Z,97034.41
2022-12-25T17:37:51.083Z,97032.00
2022-12-25T17:39:53.665Z,97032.91
2022-12-25T17:41:56.218Z,97031.22
2022-12-25T17:43:59.636Z,97035.53
2022-12-25T17:46:06.947Z,97036.53
2022-12-25T17:48:09.646Z,97035.75
2022-12-25T17:50:12.291Z,97034.19
2022-12-25T17:52:14.913Z,97051.88
2022-12-25T17:54:17.492Z,97057.41
2022-12-25T17:56:20.910Z,97060.97
2022-12-25T17:58:23.505Z,97060.25
2022-12-25T18:00:26.119Z,97065.63
2022-12-25T18:02:30.882Z,97071.69
2022-12-25T18:04:33.766Z,97080.50
2022-12-25T18:06:37.872Z,97070.19
2022-12-25T18:08:40.807Z,97068.56
2022-12-25T18:10:44.684Z,97061.72
2022-12-25T18:12:47.273Z,97067.97
2022-12-25T18:14:49.863Z,97063.88
2022-12-25T18:16:52.597Z,97074.44
2022-12-25T18:18:56.570Z,97071.03
2022-12-25T18:20:59.556Z,97075.44
2022-12-25T18:23:02.950Z,97077.31
2022-12-25T18:25:06.543Z,97077.31
2022-12-25T18:27:09.439Z,97079.28
2022-12-25T18:29:12.174Z,97077.56
2022-12-25T18:31:17.299Z,97079.38
2022-12-25T18:33:19.927Z,97085.41
2022-12-25T18:35:28.974Z,97082.00
2022-12-25T18:37:34.478Z,97076.78
2022-12-25T18:39:42.201Z,97077.72
2022-12-25T18:41:58.838Z,97089.03
2022-12-25T18:44:01.417Z,97086.38
2022-12-25T18:46:06.405Z,97093.22
2022-12-25T18:48:10.339Z,97088.00
2022-12-25T18:50:13.739Z,97093.22
2022-12-25T18:52:47.970Z,97089.75
2022-12-25T18:54:40.221Z,97087.13
2022-12-25T18:56:42.831Z,97094.97
2022-12-25T18:58:46.497Z,97095.25
2022-12-25T19:00:50.304Z,97099.81
2022-12-25T19:02:57.299Z,97100.84
2022-12-25T19:04:59.987Z,97108.91
2022-12-25T19:07:02.573Z,97101.09
2022-12-25T19:09:09.526Z,97097.03
2022-12-25T19:11:12.192Z,97101.59
2022-12-25T19:13:14.774Z,97091.25
2022-12-25T19:15:17.580Z,97090.50
2022-12-25T19:17:20.267Z,97091.44
2022-12-25T19:19:23.563Z,97095.91
2022-12-25T19:21:26.192Z,97112.53
2022-12-25T19:23:28.773Z,97105.69
2022-12-25T19:25:32.760Z,97104.81
2022-12-25T19:27:35.604Z,97106.28
2022-12-25T19:29:38.154Z,97115.97
2022-12-25T19:31:41.767Z,97123.56
2022-12-25T19:33:44.408Z,97109.38
2022-12-25T19:35:47.457Z,97102.16
2022-12-25T19:37:50.006Z,97109.38
2022-12-25T19:39:52.650Z,97109.16
2022-12-25T19:41:56.579Z,97108.28
2022-12-25T19:43:59.316Z,97101.41
2022-12-25T19:46:02.430Z,97112.59
2022-12-25T19:48:05.785Z,97114.38
2022-12-25T19:50:09.112Z,97108.00
2022-12-25T19:52:13.273Z,97106.22
2022-12-25T19:54:18.865Z,97101.75
2022-12-25T19:56:21.420Z,97107.63
2022-12-25T19:58:25.545Z,97111.03
2022-12-25T20:00:28.296Z,97118.72
2022-12-25T20:02:30.919Z,97112.56
2022-12-25T20:04:35.701Z,97118.56
2022-12-25T20:06:39.864Z,97121.22
2022-12-25T20:08:42.434Z,97115.03
2022-12-25T20:10:45.782Z,97119.44
2022-12-25T20:12:48.357Z,97115.16
2022-12-25T20:14:52.301Z,97115.28
2022-12-25T20:16:54.905Z,97118.72
2022-12-25T20:18:58.736Z,97122.31
2022-12-25T20:21:02.424Z,97118.78
2022-12-25T20:23:05.361Z,97124.06
2022-12-25T20:25:11.145Z,97118.94
2022-12-25T20:27:13.703Z,97117.31
2022-12-25T20:29:16.258Z,97123.47
2022-12-25T20:31:22.872Z,97122.69
2022-12-25T20:33:25.749Z,97124.53
2022-12-25T20:35:28.348Z,97140.28
2022-12-25T20:37:30.895Z,97140.28
2022-12-25T20:39:33.843Z,97140.28
2022-12-25T20:41:36.621Z,97134.16
2022-12-25T20:43:45.422Z,97136.91
2022-12-25T20:45:52.572Z,97135.81
2022-12-25T20:47:56.612Z,97139.56
2022-12-25T20:49:59.191Z,97136.22
2022-12-25T20:52:05.504Z,97133.75
2022-12-25T20:54:10.394Z,97135.31
2022-12-25T20:56:14.712Z,97139.69
2022-12-25T20:58:18.236Z,97140.59
2022-12-25T21:00:20.866Z,97132.03
2022-12-25T21:02:35.043Z,97137.25
2022-12-25T21:04:40.388Z,97137.50
2022-12-25T21:06:42.967Z,97138.38
2022-12-25T21:08:45.695Z,97139.19
2022-12-25T21:10:50.536Z,97147.00
2022-12-25T21:12:53.123Z,97157.50
2022-12-25T21:14:58.549Z,97153.19
2022-12-25T21:17:01.266Z,97148.88
2022-12-25T21:19:03.952Z,97149.59
2022-12-25T21:21:09.095Z,97150.28
2022-12-25T21:23:11.684Z,97146.13
2022-12-25T21:25:14.251Z,97148.31
2022-12-25T21:27:17.466Z,97152.84
2022-12-25T21:29:22.851Z,97154.81
2022-12-25T21:31:26.228Z,97150.94
2022-12-25T21:33:46.442Z,97149.03
2022-12-25T21:35:49.422Z,97155.81
2022-12-25T21:37:53.337Z,97148.59
2022-12-25T21:39:55.890Z,97147.66
2022-12-25T21:41:59.514Z,97148.19
2022-12-25T21:44:02.476Z,97149.13
2022-12-25T21:46:06.352Z,97151.47
2022-12-25T21:48:08.967Z,97147.31
2022-12-25T21:50:30.246Z,97151.69
2022-12-25T21:52:36.453Z,97162.44
2022-12-25T21:54:40.457Z,97162.75
2022-12-25T21:56:45.672Z,97161.81
2022-12-25T21:58:48.315Z,97157.38
2022-12-25T22:00:50.984Z,97165.56
2022-12-25T22:02:53.642Z,97159.84
2022-12-25T22:04:56.281Z,97153.97
2022-12-25T22:07:16.562Z,97164.91
2022-12-25T22:09:19.288Z,97167.78
2022-12-25T22:11:42.352Z,97170.50
2022-12-25T22:14:02.399Z,97176.91
2022-12-25T22:16:23.603Z,97176.00
2022-12-25T22:18:43.818Z,97173.94
2022-12-25T22:20:46.391Z,97176.06
2022-12-25T22:22:49.241Z,97177.31
2022-12-25T22:24:53.784Z,97175.84
2022-12-25T22:26:57.804Z,97172.03
2022-12-25T22:29:00.365Z,97172.03
2022-12-25T22:31:04.295Z,97167.56
2022-12-25T22:33:06.923Z,97167.19
2022-12-25T22:35:10.439Z,97166.16
2022-12-25T22:37:15.879Z,97172.56
2022-12-25T22:39:18.425Z,97167.31
2022-12-25T22:41:21.031Z,97160.75
2022-12-25T22:43:43.319Z,97163.22
2022-12-25T22:45:47.927Z,97151.88
2022-12-25T22:47:50.491Z,97149.59
2022-12-25T22:49:53.052Z,97158.09
2022-12-25T22:51:55.918Z,97159.09
2022-12-25T22:54:03.624Z,97165.38
2022-12-25T22:56:09.313Z,97152.34
2022-12-25T22:58:13.554Z,97160.41
2022-12-25T23:00:17.647Z,97161.22
2022-12-25T23:02:20.604Z,97168.31
2022-12-25T23:04:23.905Z,97172.25
2022-12-25T23:06:26.452Z,97180.69
2022-12-25T23:08:29.400Z,97180.31
2022-12-25T23:10:31.973Z,97182.41
2022-12-25T23:12:52.065Z,97184.91
2022-12-25T23:14:54.821Z,97188.75
2022-12-25T23:16:59.743Z,97189.75
2022-12-25T23:19:20.326Z,97198.59
2022-12-25T23:21:40.143Z,97197.88
2022-12-25T23:24:00.126Z,97195.72
2022-12-25T23:26:09.354Z,97193.63
2022-12-25T23:28:12.217Z,97195.25
2022-12-25T23:30:16.411Z,97189.38
2022-12-25T23:32:22.627Z,97198.44
2022-12-25T23:34:25.311Z,97202.19
2022-12-25T23:36:28.006Z,97205.81
2022-12-25T23:38:30.578Z,97209.44
2022-12-25T23:40:33.151Z,97209.38
2022-12-25T23:42:35.727Z,97215.56
2022-12-25T23:44:38.397Z,97219.00
2022-12-25T23:46:42.192Z,97224.38
2022-12-25T23:48:57.508Z,97217.63
2022-12-25T23:51:03.368Z,97222.06
2022-12-25T23:53:05.979Z,97218.81
2022-12-25T23:55:09.832Z,97219.78
2022-12-25T23:57:12.497Z,97222.50
2022-12-25T23:59:15.093Z,97224.53
